createdAt,value
2018-05-26T00:00:22.248Z,20.05
2018-05-26T00:01:22.079Z,20.05
2018-05-26T00:02:22.239Z,20.03
2018-05-26T00:03:22.310Z,20.06
2018-05-26T00:04:22.367Z,20.05
2018-05-26T00:05:22.066Z,20.04
2018-05-26T00:06:22.110Z,20.06
2018-05-26T00:07:22.197Z,20.04
2018-05-26T00:08:22.046Z,20.04
2018-05-26T00:09:22.108Z,20.05
2018-05-26T00:10:22.174Z,20.03
2018-05-26T00:11:22.326Z,20.04
2018-05-26T00:12:22.140Z,20.04
2018-05-26T00:13:21.999Z,20.05
2018-05-26T00:14:22.266Z,20.02
2018-05-26T00:15:22.260Z,20.03
2018-05-26T00:16:22.276Z,20.05
2018-05-26T00:17:22.178Z,20.04
2018-05-26T00:18:22.279Z,20.03
2018-05-26T00:19:22.128Z,20.02
2018-05-26T00:20:22.063Z,20.02
2018-05-26T00:21:22.179Z,20.02
2018-05-26T00:22:21.998Z,20.04
2018-05-26T00:23:22.253Z,20.01
2018-05-26T00:24:22.346Z,20.03
2018-05-26T00:25:22.187Z,20.05
2018-05-26T00:26:22.053Z,20.01
2018-05-26T00:27:22.164Z,20.02
2018-05-26T00:28:22.252Z,20.02
2018-05-26T00:29:22.418Z,20.01
2018-05-26T00:30:22.132Z,20.01
2018-05-26T00:31:21.983Z,20.02
2018-05-26T00:32:22.145Z,20.02
2018-05-26T00:33:22.235Z,20.02
2018-05-26T00:34:22.340Z,20.04
2018-05-26T00:35:22.243Z,20.03
2018-05-26T00:36:22.012Z,20.02
2018-05-26T00:37:22.221Z,20.04
2018-05-26T00:38:22.258Z,20
2018-05-26T00:39:22.282Z,20.02
2018-05-26T00:40:22.321Z,20.02
2018-05-26T00:41:22.296Z,20.01
2018-05-26T00:42:22.177Z,20.02
2018-05-26T00:43:22.177Z,20.03
2018-05-26T00:44:22.335Z,20
2018-05-26T00:45:22.137Z,20.01
2018-05-26T00:46:22.148Z,20
2018-05-26T00:47:22.257Z,20
2018-05-26T00:48:22.270Z,20.02
2018-05-26T00:49:21.964Z,20.01
2018-05-26T00:50:22.244Z,20.01
2018-05-26T00:51:22.445Z,20.02
2018-05-26T00:52:22.141Z,20.01
2018-05-26T00:53:22.066Z,20
2018-05-26T00:54:22.245Z,20.01
2018-05-26T00:55:22.246Z,20.02
2018-05-26T00:56:22.081Z,19.99
2018-05-26T00:57:22.468Z,20.01
2018-05-26T00:58:22.094Z,20.01
2018-05-26T00:59:22.211Z,20.01
2018-05-26T01:00:22.164Z,20.02
2018-05-26T01:01:22.076Z,20
2018-05-26T01:02:22.251Z,20
2018-05-26T01:03:22.229Z,20
2018-05-26T01:04:22.143Z,20
2018-05-26T01:05:22.165Z,20.01
2018-05-26T01:06:22.192Z,20.02
2018-05-26T01:07:22.079Z,20.01
2018-05-26T01:08:22.138Z,19.99
2018-05-26T01:09:22.196Z,20.01
2018-05-26T01:10:22.244Z,20.01
2018-05-26T01:11:22.106Z,19.99
2018-05-26T01:12:22.112Z,20.01
2018-05-26T01:13:22.226Z,20.01
2018-05-26T01:14:22.167Z,20
2018-05-26T01:15:22.090Z,20
2018-05-26T01:16:22.028Z,20.01
2018-05-26T01:17:22.204Z,19.99
2018-05-26T01:18:22.269Z,19.99
2018-05-26T01:19:22.161Z,20.02
2018-05-26T01:20:22.249Z,20.01
2018-05-26T01:21:22.256Z,20.01
2018-05-26T01:22:22.228Z,19.99
2018-05-26T01:23:22.083Z,19.99
2018-05-26T01:24:22.147Z,20
2018-05-26T01:25:22.312Z,19.99
2018-05-26T01:26:22.193Z,20
2018-05-26T01:27:22.119Z,19.99
2018-05-26T01:28:22.062Z,20
2018-05-26T01:29:22.137Z,19.98
2018-05-26T01:30:22.069Z,19.99
2018-05-26T01:31:22.133Z,20.01
2018-05-26T01:32:22.285Z,19.98
2018-05-26T01:33:22.161Z,20
2018-05-26T01:34:22.088Z,20
2018-05-26T01:35:22.262Z,19.99
2018-05-26T01:36:22.178Z,19.99
2018-05-26T01:37:22.117Z,20.01
2018-05-26T01:38:22.123Z,19.99
2018-05-26T01:39:22.027Z,20
2018-05-26T01:40:22.117Z,20.01
2018-05-26T01:41:22.113Z,19.98
2018-05-26T01:42:22.253Z,20.01
2018-05-26T01:43:22.151Z,19.99
2018-05-26T01:44:22.052Z,19.96
2018-05-26T01:45:22.220Z,19.99
2018-05-26T01:46:22.024Z,19.98
2018-05-26T01:47:22.186Z,19.98
2018-05-26T01:48:22.064Z,19.99
2018-05-26T01:49:22.143Z,20.01
2018-05-26T01:50:22.451Z,19.98
2018-05-26T01:51:22.221Z,19.99
2018-05-26T01:52:22.056Z,20
2018-05-26T01:53:22.201Z,19.99
2018-05-26T01:54:22.095Z,19.98
2018-05-26T01:55:22.083Z,19.99
2018-05-26T01:56:22.270Z,19.97
2018-05-26T01:57:21.936Z,20
2018-05-26T01:58:22.001Z,19.98
2018-05-26T01:59:22.234Z,19.99
2018-05-26T02:00:22.211Z,19.97
2018-05-26T02:01:22.331Z,19.99
2018-05-26T02:02:22.395Z,20
2018-05-26T02:03:22.064Z,20
2018-05-26T02:04:22.089Z,19.98
2018-05-26T02:05:22.144Z,19.99
2018-05-26T02:06:22.180Z,19.98
2018-05-26T02:07:22.145Z,20
2018-05-26T02:08:22.085Z,19.98
2018-05-26T02:09:22.127Z,19.98
2018-05-26T02:10:22.282Z,19.99
2018-05-26T02:11:22.217Z,19.99
2018-05-26T02:12:22.234Z,19.99
2018-05-26T02:13:22.046Z,19.99
2018-05-26T02:14:22.203Z,19.98
2018-05-26T02:15:22.323Z,19.98
2018-05-26T02:16:22.078Z,19.99
2018-05-26T02:17:22.175Z,19.97
2018-05-26T02:18:22.246Z,19.98
2018-05-26T02:19:22.144Z,19.97
2018-05-26T02:20:22.180Z,19.96
2018-05-26T02:21:22.195Z,19.99
2018-05-26T02:22:22.084Z,19.99
2018-05-26T02:23:22.098Z,19.99
2018-05-26T02:24:22.106Z,19.97
2018-05-26T02:25:22.209Z,19.99
2018-05-26T02:26:22.176Z,19.97
2018-05-26T02:27:22.042Z,19.96
2018-05-26T02:28:22.118Z,19.98
2018-05-26T02:29:22.140Z,19.96
2018-05-26T02:30:22.223Z,19.96
2018-05-26T02:31:44.043Z,19.97
2018-05-26T02:32:22.072Z,19.97
2018-05-26T02:33:22.175Z,19.97
2018-05-26T02:34:22.033Z,19.98
2018-05-26T02:35:22.288Z,19.96
2018-05-26T02:36:32.043Z,19.96
2018-05-26T02:37:22.088Z,19.98
2018-05-26T02:38:22.093Z,19.97
2018-05-26T02:39:22.383Z,19.97
2018-05-26T02:40:22.191Z,19.99
2018-05-26T02:41:22.109Z,19.96
2018-05-26T02:42:22.245Z,19.97
2018-05-26T02:43:22.314Z,19.97
2018-05-26T02:44:22.091Z,19.96
2018-05-26T02:45:22.202Z,19.98
2018-05-26T02:46:22.236Z,19.99
2018-05-26T02:47:22.251Z,19.96
2018-05-26T02:48:21.956Z,19.97
2018-05-26T02:49:22.131Z,19.97
2018-05-26T02:50:22.116Z,19.96
2018-05-26T02:51:22.310Z,19.95
2018-05-26T02:52:22.023Z,19.98
2018-05-26T02:53:22.249Z,19.96
2018-05-26T02:54:22.171Z,19.96
2018-05-26T02:55:22.187Z,19.98
2018-05-26T02:56:22.151Z,19.96
2018-05-26T02:57:22.007Z,19.96
2018-05-26T02:58:22.099Z,19.98
2018-05-26T02:59:22.293Z,19.98
2018-05-26T03:00:22.176Z,19.94
2018-05-26T03:01:22.180Z,19.99
2018-05-26T03:02:22.253Z,19.95
2018-05-26T03:03:22.174Z,19.96
2018-05-26T03:04:22.054Z,19.97
2018-05-26T03:05:22.253Z,19.96
2018-05-26T03:06:22.292Z,19.96
2018-05-26T03:07:22.201Z,19.98
2018-05-26T03:08:22.009Z,19.97
2018-05-26T03:09:22.162Z,19.96
2018-05-26T03:10:22.069Z,19.97
2018-05-26T03:11:22.085Z,19.96
2018-05-26T03:12:22.276Z,19.98
2018-05-26T03:13:21.969Z,19.96
2018-05-26T03:14:22.062Z,19.96
2018-05-26T03:15:22.284Z,19.99
2018-05-26T03:16:22.175Z,19.97
2018-05-26T03:17:22.177Z,19.97
2018-05-26T03:18:22.057Z,19.97
2018-05-26T03:19:22.432Z,19.96
2018-05-26T03:20:22.052Z,19.95
2018-05-26T03:21:22.291Z,19.95
2018-05-26T03:22:22.119Z,19.98
2018-05-26T03:23:22.072Z,19.95
2018-05-26T03:24:22.032Z,19.95
2018-05-26T03:25:22.025Z,19.97
2018-05-26T03:26:22.103Z,19.96
2018-05-26T03:27:22.130Z,19.96
2018-05-26T03:28:22.231Z,19.97
2018-05-26T03:29:22.078Z,19.96
2018-05-26T03:30:22.284Z,19.94
2018-05-26T03:31:22.142Z,19.96
2018-05-26T03:32:22.018Z,19.94
2018-05-26T03:33:22.055Z,19.95
2018-05-26T03:34:22.328Z,19.96
2018-05-26T03:35:22.268Z,19.95
2018-05-26T03:36:22.438Z,19.94
2018-05-26T03:37:21.986Z,19.94
2018-05-26T03:38:22.178Z,19.94
2018-05-26T03:39:22.180Z,19.96
2018-05-26T03:40:22.018Z,19.97
2018-05-26T03:41:22.238Z,19.94
2018-05-26T03:42:22.072Z,19.96
2018-05-26T03:43:22.361Z,19.96
2018-05-26T03:44:22.023Z,19.96
2018-05-26T03:45:22.194Z,19.94
2018-05-26T03:46:22.040Z,19.94
2018-05-26T03:47:21.930Z,19.95
2018-05-26T03:48:22.200Z,19.95
2018-05-26T03:49:22.139Z,19.96
2018-05-26T03:50:22.146Z,19.94
2018-05-26T03:51:22.242Z,19.95
2018-05-26T03:52:22.238Z,19.95
2018-05-26T03:53:22.064Z,19.95
2018-05-26T03:54:22.059Z,19.96
2018-05-26T03:55:22.015Z,19.96
2018-05-26T03:56:22.040Z,19.91
2018-05-26T03:57:22.187Z,19.94
2018-05-26T03:58:22.169Z,19.95
2018-05-26T03:59:22.038Z,19.94
2018-05-26T04:00:22.146Z,19.94
2018-05-26T04:01:22.237Z,19.94
2018-05-26T04:02:22.091Z,19.94
2018-05-26T04:03:22.075Z,19.94
2018-05-26T04:04:21.969Z,19.96
2018-05-26T04:05:22.102Z,19.96
2018-05-26T04:06:22.223Z,19.94
2018-05-26T04:07:22.149Z,19.95
2018-05-26T04:08:22.222Z,19.94
2018-05-26T04:09:22.151Z,19.96
2018-05-26T04:10:22.195Z,19.95
2018-05-26T04:11:22.256Z,19.95
2018-05-26T04:12:22.193Z,19.94
2018-05-26T04:13:22.002Z,19.97
2018-05-26T04:14:22.059Z,19.95
2018-05-26T04:15:22.066Z,19.94
2018-05-26T04:16:22.271Z,19.96
2018-05-26T04:17:22.089Z,19.94
2018-05-26T04:18:22.148Z,19.94
2018-05-26T04:19:22.302Z,19.94
2018-05-26T04:20:22.178Z,19.92
2018-05-26T04:21:22.188Z,19.94
2018-05-26T04:22:22.112Z,19.95
2018-05-26T04:23:22.184Z,19.92
2018-05-26T04:24:22.059Z,19.92
2018-05-26T04:25:22.369Z,19.96
2018-05-26T04:26:22.133Z,19.95
2018-05-26T04:27:22.261Z,19.94
2018-05-26T04:28:22.191Z,19.95
2018-05-26T04:29:22.194Z,19.94
2018-05-26T04:30:22.202Z,19.95
2018-05-26T04:31:21.983Z,19.95
2018-05-26T04:32:22.122Z,19.94
2018-05-26T04:33:22.187Z,19.94
2018-05-26T04:34:22.080Z,19.94
2018-05-26T04:35:22.272Z,19.94
2018-05-26T04:36:22.129Z,19.94
2018-05-26T04:37:22.124Z,19.96
2018-05-26T04:38:22.199Z,19.95
2018-05-26T04:39:22.108Z,19.94
2018-05-26T04:40:32.059Z,19.94
2018-05-26T04:41:22.117Z,19.94
2018-05-26T04:42:21.911Z,19.94
2018-05-26T04:43:22.115Z,19.94
2018-05-26T04:44:22.118Z,19.92
2018-05-26T04:45:22.172Z,19.92
2018-05-26T04:46:21.999Z,19.96
2018-05-26T04:47:22.096Z,19.94
2018-05-26T04:48:22.255Z,19.95
2018-05-26T04:49:22.204Z,19.94
2018-05-26T04:50:22.122Z,19.91
2018-05-26T04:51:22.068Z,19.94
2018-05-26T04:52:21.952Z,19.96
2018-05-26T04:53:22.132Z,19.92
2018-05-26T04:54:22.126Z,19.94
2018-05-26T04:55:22.165Z,19.94
2018-05-26T04:56:22.024Z,19.91
2018-05-26T04:57:22.123Z,19.95
2018-05-26T04:58:22.105Z,19.94
2018-05-26T04:59:22.150Z,19.94
2018-05-26T05:00:22.144Z,19.92
2018-05-26T05:01:22.133Z,19.95
2018-05-26T05:02:22.168Z,19.94
2018-05-26T05:03:21.975Z,19.95
2018-05-26T05:04:22.031Z,19.95
2018-05-26T05:05:22.202Z,19.92
2018-05-26T05:06:22.049Z,19.94
2018-05-26T05:07:22.229Z,19.94
2018-05-26T05:08:22.220Z,19.94
2018-05-26T05:09:22.088Z,19.95
2018-05-26T05:10:22.043Z,19.95
2018-05-26T05:11:22.116Z,19.94
2018-05-26T05:12:21.936Z,19.96
2018-05-26T05:13:22.106Z,19.94
2018-05-26T05:14:22.020Z,19.94
2018-05-26T05:15:22.260Z,19.92
2018-05-26T05:16:21.952Z,19.94
2018-05-26T05:17:22.152Z,19.94
2018-05-26T05:18:22.187Z,19.94
2018-05-26T05:19:22.177Z,19.94
2018-05-26T05:20:21.980Z,19.95
2018-05-26T05:21:22.011Z,19.94
2018-05-26T05:22:22.083Z,19.94
2018-05-26T05:23:22.108Z,19.96
2018-05-26T05:24:22.079Z,19.95
2018-05-26T05:25:22.055Z,19.95
2018-05-26T05:26:22.110Z,19.92
2018-05-26T05:27:22.099Z,19.96
2018-05-26T05:28:22.218Z,19.96
2018-05-26T05:29:22.115Z,19.96
2018-05-26T05:30:21.949Z,19.92
2018-05-26T05:31:22.160Z,19.95
2018-05-26T05:32:22.000Z,19.92
2018-05-26T05:33:22.077Z,19.94
2018-05-26T05:34:22.134Z,19.96
2018-05-26T05:35:22.125Z,19.94
2018-05-26T05:36:22.052Z,19.96
2018-05-26T05:37:22.209Z,19.96
2018-05-26T05:38:22.346Z,19.91
2018-05-26T05:39:21.835Z,19.94
2018-05-26T05:40:22.136Z,19.97
2018-05-26T05:41:22.128Z,19.94
2018-05-26T05:42:22.147Z,19.94
2018-05-26T05:43:21.994Z,19.97
2018-05-26T05:44:22.237Z,19.94
2018-05-26T05:45:22.538Z,19.94
2018-05-26T05:46:22.163Z,19.94
2018-05-26T05:47:22.021Z,19.95
2018-05-26T05:48:22.045Z,19.94
2018-05-26T05:49:22.096Z,19.96
2018-05-26T05:50:22.147Z,19.96
2018-05-26T05:51:21.944Z,19.95
2018-05-26T05:52:22.074Z,19.97
2018-05-26T05:53:22.219Z,19.94
2018-05-26T05:54:22.146Z,19.95
2018-05-26T05:55:22.163Z,19.95
2018-05-26T05:56:22.318Z,19.95
2018-05-26T05:57:21.900Z,19.94
2018-05-26T05:58:21.910Z,19.97
2018-05-26T05:59:22.160Z,19.95
2018-05-26T06:00:22.182Z,19.94
2018-05-26T06:01:22.147Z,19.94
2018-05-26T06:02:21.985Z,19.92
2018-05-26T06:03:22.169Z,19.95
2018-05-26T06:04:21.985Z,19.95
2018-05-26T06:05:22.116Z,19.92
2018-05-26T06:06:22.138Z,19.94
2018-05-26T06:07:21.982Z,19.95
2018-05-26T06:08:22.100Z,19.97
2018-05-26T06:09:22.349Z,19.95
2018-05-26T06:10:22.004Z,19.96
2018-05-26T06:11:22.096Z,19.94
2018-05-26T06:12:22.379Z,19.96
2018-05-26T06:13:22.033Z,19.94
2018-05-26T06:14:22.027Z,19.95
2018-05-26T06:15:22.239Z,19.95
2018-05-26T06:16:22.132Z,19.96
2018-05-26T06:17:22.240Z,19.94
2018-05-26T06:18:22.016Z,19.96
2018-05-26T06:19:22.112Z,19.95
2018-05-26T06:20:22.079Z,19.94
2018-05-26T06:21:22.017Z,19.96
2018-05-26T06:22:22.047Z,19.96
2018-05-26T06:23:22.530Z,19.95
2018-05-26T06:24:21.910Z,19.94
2018-05-26T06:25:21.935Z,19.94
2018-05-26T06:26:22.319Z,19.96
2018-05-26T06:27:22.032Z,19.96
2018-05-26T06:28:22.162Z,19.98
2018-05-26T06:29:22.169Z,19.94
2018-05-26T06:30:22.158Z,19.95
2018-05-26T06:31:21.962Z,19.95
2018-05-26T06:32:22.061Z,19.92
2018-05-26T06:33:21.878Z,19.96
2018-05-26T06:34:22.105Z,19.98
2018-05-26T06:35:22.021Z,19.94
2018-05-26T06:36:22.113Z,19.97
2018-05-26T06:37:22.184Z,19.96
2018-05-26T06:38:22.425Z,19.96
2018-05-26T06:39:22.026Z,19.94
2018-05-26T06:40:22.048Z,19.95
2018-05-26T06:41:22.172Z,19.95
2018-05-26T06:42:21.949Z,19.95
2018-05-26T06:43:22.033Z,19.96
2018-05-26T06:44:22.118Z,19.94
2018-05-26T06:45:24.278Z,19.97
2018-05-26T06:46:22.057Z,19.92
2018-05-26T06:47:22.298Z,19.94
2018-05-26T06:48:22.303Z,19.96
2018-05-26T06:49:22.117Z,19.96
2018-05-26T06:50:22.073Z,19.96
2018-05-26T06:51:22.365Z,19.96
2018-05-26T06:52:22.806Z,19.97
2018-05-26T06:53:21.958Z,19.92
2018-05-26T06:54:22.036Z,19.94
2018-05-26T06:55:21.927Z,19.96
2018-05-26T06:56:22.143Z,19.95
2018-05-26T06:57:22.035Z,19.95
2018-05-26T06:58:22.094Z,19.95
2018-05-26T06:59:22.335Z,19.96
2018-05-26T07:00:22.316Z,19.94
2018-05-26T07:01:21.947Z,19.95
2018-05-26T07:02:21.967Z,19.94
2018-05-26T07:03:21.964Z,19.94
2018-05-26T07:04:21.940Z,19.96
2018-05-26T07:05:22.055Z,19.95
2018-05-26T07:06:22.173Z,19.95
2018-05-26T07:07:21.985Z,19.96
2018-05-26T07:08:22.242Z,19.95
2018-05-26T07:09:21.929Z,19.96
2018-05-26T07:10:21.841Z,19.96
2018-05-26T07:11:22.097Z,19.94
2018-05-26T07:12:22.060Z,19.94
2018-05-26T07:13:21.940Z,19.95
2018-05-26T07:14:21.930Z,19.94
2018-05-26T07:15:22.048Z,19.95
2018-05-26T07:16:22.037Z,19.95
2018-05-26T07:17:22.018Z,19.96
2018-05-26T07:18:22.136Z,19.95
2018-05-26T07:19:22.262Z,19.95
2018-05-26T07:20:22.045Z,19.95
2018-05-26T07:21:22.061Z,19.95
2018-05-26T07:22:22.219Z,19.95
2018-05-26T07:23:22.126Z,19.92
2018-05-26T07:24:22.242Z,19.97
2018-05-26T07:25:22.011Z,19.96
2018-05-26T07:26:22.036Z,19.96
2018-05-26T07:27:21.962Z,19.96
2018-05-26T07:28:22.059Z,19.97
2018-05-26T07:29:22.149Z,19.96
2018-05-26T07:30:22.322Z,19.96
2018-05-26T07:31:22.124Z,19.97
2018-05-26T07:32:22.132Z,19.92
2018-05-26T07:33:22.076Z,19.96
2018-05-26T07:34:22.306Z,19.96
2018-05-26T07:35:22.263Z,19.92
2018-05-26T07:36:21.954Z,19.92
2018-05-26T07:37:22.161Z,19.98
2018-05-26T07:38:22.343Z,19.95
2018-05-26T07:39:21.948Z,19.96
2018-05-26T07:40:22.336Z,19.96
2018-05-26T07:41:21.949Z,19.94
2018-05-26T07:42:22.152Z,19.95
2018-05-26T07:43:22.021Z,19.96
2018-05-26T07:44:22.118Z,19.95
2018-05-26T07:45:22.271Z,19.95
2018-05-26T07:46:22.233Z,19.97
2018-05-26T07:47:22.180Z,19.95
2018-05-26T07:48:22.175Z,19.95
2018-05-26T07:49:21.995Z,19.95
2018-05-26T07:50:21.966Z,19.96
2018-05-26T07:51:21.993Z,19.95
2018-05-26T07:52:22.052Z,19.98
2018-05-26T07:53:22.143Z,19.94
2018-05-26T07:54:21.934Z,19.95
2018-05-26T07:55:22.279Z,19.95
2018-05-26T07:56:22.062Z,19.91
2018-05-26T07:57:22.024Z,19.95
2018-05-26T07:58:22.324Z,19.96
2018-05-26T07:59:22.151Z,19.96
2018-05-26T08:00:22.233Z,19.94
2018-05-26T08:01:22.138Z,19.96
2018-05-26T08:02:21.922Z,19.96
2018-05-26T08:03:21.917Z,19.95
2018-05-26T08:04:22.087Z,19.95
2018-05-26T08:05:22.369Z,19.94
2018-05-26T08:06:22.223Z,19.95
2018-05-26T08:07:22.042Z,19.95
2018-05-26T08:08:21.911Z,19.97
2018-05-26T08:09:21.944Z,19.95
2018-05-26T08:10:22.021Z,19.96
2018-05-26T08:11:21.917Z,19.94
2018-05-26T08:12:21.927Z,19.96
2018-05-26T08:13:22.092Z,19.97
2018-05-26T08:14:22.001Z,19.95
2018-05-26T08:15:22.133Z,19.96
2018-05-26T08:16:21.915Z,19.96
2018-05-26T08:17:22.733Z,19.94
2018-05-26T08:18:21.983Z,19.95
2018-05-26T08:19:22.118Z,19.96
2018-05-26T08:20:22.020Z,19.94
2018-05-26T08:21:21.998Z,19.94
2018-05-26T08:22:21.999Z,19.96
2018-05-26T08:23:21.995Z,19.95
2018-05-26T08:24:22.177Z,19.97
2018-05-26T08:25:21.926Z,19.95
2018-05-26T08:26:22.135Z,19.95
2018-05-26T08:27:22.539Z,19.96
2018-05-26T08:28:21.980Z,19.95
2018-05-26T08:29:22.103Z,19.95
2018-05-26T08:30:21.911Z,19.95
2018-05-26T08:31:22.169Z,19.95
2018-05-26T08:32:22.119Z,19.96
2018-05-26T08:33:22.140Z,19.94
2018-05-26T08:34:21.906Z,19.95
2018-05-26T08:35:22.085Z,19.96
2018-05-26T08:36:22.009Z,19.96
2018-05-26T08:37:22.388Z,19.95
2018-05-26T08:38:22.156Z,19.95
2018-05-26T08:39:21.919Z,19.97
2018-05-26T08:40:21.964Z,20.01
2018-05-26T08:41:22.085Z,20.02
2018-05-26T08:42:22.116Z,20.01
2018-05-26T08:43:22.095Z,20.02
2018-05-26T08:44:21.965Z,20.03
2018-05-26T08:45:22.750Z,20.04
2018-05-26T08:46:22.724Z,20.07
2018-05-26T08:47:22.726Z,20.06
2018-05-26T08:48:22.786Z,20.07
2018-05-26T08:49:22.644Z,20.09
2018-05-26T08:50:22.776Z,20.09
2018-05-26T08:51:25.068Z,20.12
2018-05-26T08:52:22.390Z,20.12
2018-05-26T08:53:24.548Z,20.12
2018-05-26T08:54:24.935Z,20.13
2018-05-26T08:55:22.380Z,20.15
2018-05-26T08:56:22.394Z,20.13
2018-05-26T08:57:24.984Z,20.14
2018-05-26T08:58:22.345Z,20.13
2018-05-26T08:59:21.993Z,20.12
2018-05-26T09:00:22.511Z,20.12
2018-05-26T09:01:21.863Z,20.13
2018-05-26T09:02:22.887Z,20.14
2018-05-26T09:03:23.121Z,20.11
2018-05-26T09:04:22.735Z,20.14
2018-05-26T09:05:22.392Z,20.14
2018-05-26T09:06:22.778Z,20.14
2018-05-26T09:07:22.751Z,20.14
2018-05-26T09:08:21.989Z,20.11
2018-05-26T09:09:23.081Z,20.14
2018-05-26T09:10:22.444Z,20.12
2018-05-26T09:11:22.429Z,20.13
2018-05-26T09:12:22.293Z,20.14
2018-05-26T09:13:22.751Z,20.14
2018-05-26T09:14:21.970Z,20.15
2018-05-26T09:15:21.989Z,20.13
2018-05-26T09:16:22.352Z,20.15
2018-05-26T09:17:21.951Z,20.13
2018-05-26T09:18:22.757Z,20.13
2018-05-26T09:19:22.282Z,20.12
2018-05-26T09:20:21.901Z,20.13
2018-05-26T09:21:25.103Z,20.13
2018-05-26T09:22:23.045Z,20.14
2018-05-26T09:23:21.988Z,20.14
2018-05-26T09:24:21.996Z,20.14
2018-05-26T09:25:22.668Z,20.11
2018-05-26T09:26:21.864Z,20.09
2018-05-26T09:27:22.014Z,20.14
2018-05-26T09:28:22.396Z,20.12
2018-05-26T09:29:21.960Z,20.09
2018-05-26T09:30:22.348Z,20.09
2018-05-26T09:31:22.633Z,20.09
2018-05-26T09:32:22.407Z,20.07
2018-05-26T09:33:21.945Z,20.1
2018-05-26T09:34:21.911Z,20.07
2018-05-26T09:35:21.916Z,20.07
2018-05-26T09:36:23.159Z,20.07
2018-05-26T09:37:21.948Z,20.07
2018-05-26T09:38:21.990Z,20.04
2018-05-26T09:39:22.703Z,20.06
2018-05-26T09:40:22.770Z,20.06
2018-05-26T09:41:22.014Z,20.05
2018-05-26T09:42:23.060Z,20.06
2018-05-26T09:43:21.971Z,20.05
2018-05-26T09:44:22.442Z,20.04
2018-05-26T09:45:22.091Z,20.04
2018-05-26T09:46:21.923Z,20.04
2018-05-26T09:47:21.952Z,20.02
2018-05-26T09:48:22.065Z,20.05
2018-05-26T09:49:21.897Z,20.04
2018-05-26T09:50:22.016Z,20.04
2018-05-26T09:51:21.866Z,20.04
2018-05-26T09:52:22.323Z,20.04
2018-05-26T09:53:21.816Z,20.03
2018-05-26T09:54:21.921Z,20.03
2018-05-26T09:55:22.176Z,20.04
2018-05-26T09:56:22.311Z,20.04
2018-05-26T09:57:22.156Z,20.03
2018-05-26T09:58:21.963Z,20.04
2018-05-26T09:59:22.088Z,20.03
2018-05-26T10:00:22.317Z,20.06
2018-05-26T10:01:21.887Z,20.03
2018-05-26T10:02:21.897Z,20.02
2018-05-26T10:03:22.092Z,20.02
2018-05-26T10:04:22.794Z,20.03
2018-05-26T10:05:22.047Z,20.02
2018-05-26T10:06:22.010Z,20.04
2018-05-26T10:07:22.088Z,20.04
2018-05-26T10:08:21.903Z,20.01
2018-05-26T10:09:22.335Z,20.03
2018-05-26T10:10:21.902Z,20.01
2018-05-26T10:11:21.942Z,20.02
2018-05-26T10:12:22.037Z,20.02
2018-05-26T10:13:22.080Z,20.02
2018-05-26T10:14:21.950Z,20.03
2018-05-26T10:15:22.165Z,20.05
2018-05-26T10:16:22.057Z,20.07
2018-05-26T10:17:22.001Z,20.09
2018-05-26T10:18:22.069Z,20.1
2018-05-26T10:19:22.028Z,20.12
2018-05-26T10:20:21.944Z,20.13
2018-05-26T10:21:22.109Z,20.13
2018-05-26T10:22:21.982Z,20.16
2018-05-26T10:23:21.928Z,20.15
2018-05-26T10:24:22.090Z,20.17
2018-05-26T10:25:22.243Z,20.18
2018-05-26T10:26:22.719Z,20.19
2018-05-26T10:27:21.952Z,20.2
2018-05-26T10:28:22.077Z,20.19
2018-05-26T10:29:21.922Z,20.21
2018-05-26T10:30:22.072Z,20.25
2018-05-26T10:31:22.022Z,20.25
2018-05-26T10:32:22.305Z,20.25
2018-05-26T10:33:22.114Z,20.25
2018-05-26T10:34:22.177Z,20.27
2018-05-26T10:35:22.063Z,20.22
2018-05-26T10:36:21.932Z,20.27
2018-05-26T10:37:21.898Z,20.28
2018-05-26T10:38:22.014Z,20.27
2018-05-26T10:39:22.223Z,20.3
2018-05-26T10:40:22.214Z,20.29
2018-05-26T10:41:22.135Z,20.3
2018-05-26T10:42:22.195Z,20.3
2018-05-26T10:43:22.171Z,20.31
2018-05-26T10:44:22.102Z,20.32
2018-05-26T10:45:22.597Z,20.32
2018-05-26T10:46:22.049Z,20.34
2018-05-26T10:47:21.923Z,20.34
2018-05-26T10:48:21.918Z,20.35
2018-05-26T10:49:22.033Z,20.36
2018-05-26T10:50:22.017Z,20.37
2018-05-26T10:51:22.029Z,20.35
2018-05-26T10:52:21.985Z,20.37
2018-05-26T10:53:22.063Z,20.4
2018-05-26T10:54:21.920Z,20.41
2018-05-26T10:55:21.903Z,20.4
2018-05-26T10:56:21.866Z,20.42
2018-05-26T10:57:22.235Z,20.43
2018-05-26T10:58:22.061Z,20.44
2018-05-26T10:59:22.049Z,20.43
2018-05-26T11:00:22.126Z,20.44
2018-05-26T11:01:21.977Z,20.45
2018-05-26T11:02:21.973Z,20.46
2018-05-26T11:03:21.996Z,20.47
2018-05-26T11:04:22.419Z,20.48
2018-05-26T11:05:21.787Z,20.48
2018-05-26T11:06:22.002Z,20.49
2018-05-26T11:07:22.038Z,20.49
2018-05-26T11:08:22.150Z,20.48
2018-05-26T11:09:22.048Z,20.48
2018-05-26T11:10:21.931Z,20.48
2018-05-26T11:11:21.868Z,20.46
2018-05-26T11:12:22.123Z,20.49
2018-05-26T11:13:22.224Z,20.48
2018-05-26T11:14:21.890Z,20.47
2018-05-26T11:15:22.110Z,20.48
2018-05-26T11:16:22.936Z,20.47
2018-05-26T11:17:22.076Z,20.48
2018-05-26T11:18:22.007Z,20.45
2018-05-26T11:19:22.124Z,20.47
2018-05-26T11:20:22.537Z,20.46
2018-05-26T11:21:22.037Z,20.47
2018-05-26T11:22:21.988Z,20.45
2018-05-26T11:23:21.953Z,20.45
2018-05-26T11:24:22.487Z,20.44
2018-05-26T11:25:21.977Z,20.45
2018-05-26T11:26:22.126Z,20.43
2018-05-26T11:27:22.083Z,20.45
2018-05-26T11:28:22.033Z,20.43
2018-05-26T11:29:22.100Z,20.44
2018-05-26T11:30:22.008Z,20.42
2018-05-26T11:31:21.895Z,20.43
2018-05-26T11:32:21.984Z,20.43
2018-05-26T11:33:22.024Z,20.44
2018-05-26T11:34:21.956Z,20.45
2018-05-26T11:35:22.095Z,20.42
2018-05-26T11:36:22.125Z,20.39
2018-05-26T11:37:22.403Z,20.39
2018-05-26T11:38:21.986Z,20.39
2018-05-26T11:39:21.960Z,20.39
2018-05-26T11:40:21.986Z,20.37
2018-05-26T11:41:22.015Z,20.34
2018-05-26T11:42:21.894Z,20.36
2018-05-26T11:43:22.078Z,20.33
2018-05-26T11:44:21.955Z,20.33
2018-05-26T11:45:21.969Z,20.32
2018-05-26T11:46:21.944Z,20.32
2018-05-26T11:47:22.124Z,20.31
2018-05-26T11:48:22.000Z,20.3
2018-05-26T11:49:21.929Z,20.31
2018-05-26T11:50:21.848Z,20.29
2018-05-26T11:51:22.345Z,20.33
2018-05-26T11:52:21.936Z,20.3
2018-05-26T11:53:22.176Z,20.29
2018-05-26T11:54:22.141Z,20.29
2018-05-26T11:55:21.868Z,20.29
2018-05-26T11:56:22.114Z,20.28
2018-05-26T11:57:22.091Z,20.29
2018-05-26T11:58:21.830Z,20.28
2018-05-26T11:59:21.946Z,20.28
2018-05-26T12:00:22.005Z,20.27
2018-05-26T12:01:21.964Z,20.28
2018-05-26T12:02:22.074Z,20.27
2018-05-26T12:03:22.019Z,20.27
2018-05-26T12:04:22.138Z,20.27
2018-05-26T12:05:21.785Z,20.27
2018-05-26T12:06:21.953Z,20.27
2018-05-26T12:07:22.712Z,20.24
2018-05-26T12:08:21.887Z,20.26
2018-05-26T12:09:21.907Z,20.27
2018-05-26T12:10:22.061Z,20.27
2018-05-26T12:11:22.145Z,20.24
2018-05-26T12:12:22.324Z,20.25
2018-05-26T12:13:21.987Z,20.27
2018-05-26T12:14:22.006Z,20.25
2018-05-26T12:15:21.908Z,20.27
2018-05-26T12:16:22.153Z,20.26
2018-05-26T12:17:22.122Z,20.22
2018-05-26T12:18:22.009Z,20.25
2018-05-26T12:19:21.861Z,20.24
2018-05-26T12:20:22.037Z,20.22
2018-05-26T12:21:22.004Z,20.24
2018-05-26T12:22:21.969Z,20.24
2018-05-26T12:23:21.984Z,20.22
2018-05-26T12:24:22.037Z,20.24
2018-05-26T12:25:22.349Z,20.22
2018-05-26T12:26:21.844Z,20.2
2018-05-26T12:27:21.983Z,20.21
2018-05-26T12:28:22.073Z,20.22
2018-05-26T12:29:21.932Z,20.22
2018-05-26T12:30:21.937Z,20.24
2018-05-26T12:31:22.076Z,20.22
2018-05-26T12:32:21.951Z,20.21
2018-05-26T12:33:21.894Z,20.21
2018-05-26T12:34:21.971Z,20.2
2018-05-26T12:35:21.909Z,20.19
2018-05-26T12:36:22.006Z,20.22
2018-05-26T12:37:21.955Z,20.22
2018-05-26T12:38:22.158Z,20.2
2018-05-26T12:39:21.929Z,20.2
2018-05-26T12:40:22.057Z,20.2
2018-05-26T12:41:22.193Z,20.19
2018-05-26T12:42:21.904Z,20.2
2018-05-26T12:43:22.145Z,20.21
2018-05-26T12:44:21.859Z,20.2
2018-05-26T12:45:22.344Z,20.2
2018-05-26T12:46:21.785Z,20.22
2018-05-26T12:47:21.994Z,20.21
2018-05-26T12:48:22.112Z,20.2
2018-05-26T12:49:21.917Z,20.2
2018-05-26T12:50:22.149Z,20.2
2018-05-26T12:51:21.833Z,20.21
2018-05-26T12:52:22.084Z,20.2
2018-05-26T12:53:21.948Z,20.19
2018-05-26T12:54:22.376Z,20.17
2018-05-26T12:55:22.009Z,20.21